createdAt,value
2022-11-28T00:01:53.858Z,3.50
2022-11-28T00:04:22.085Z,3.67
2022-11-28T00:06:50.636Z,3.97
2022-11-28T00:09:21.481Z,4.03
2022-11-28T00:11:50.639Z,3.63
2022-11-28T00:14:21.252Z,4.10
2022-11-28T00:16:49.649Z,3.50
2022-11-28T00:19:18.048Z,4.33
2022-11-28T00:21:46.212Z,4.43
2022-11-28T00:24:14.456Z,4.73
2022-11-28T00:26:43.108Z,4.10
2022-11-28T00:29:11.966Z,4.37
2022-11-28T00:31:43.914Z,4.07
2022-11-28T00:34:14.722Z,4.23
2022-11-28T00:36:45.300Z,4.37
2022-11-28T00:39:13.725Z,4.30
2022-11-28T00:41:42.235Z,4.30
2022-11-28T00:44:10.770Z,4.53
2022-11-28T00:46:39.048Z,4.43
2022-11-28T00:49:08.621Z,4.13
2022-11-28T00:51:38.267Z,3.87
2022-11-28T00:54:10.108Z,3.77
2022-11-28T00:56:40.184Z,4.23
2022-11-28T00:59:08.445Z,4.40
2022-11-28T01:01:41.357Z,4.33
2022-11-28T01:04:14.898Z,4.67
2022-11-28T01:06:45.111Z,4.97
2022-11-28T01:09:15.320Z,4.47
2022-11-28T01:11:44.813Z,4.47
2022-11-28T01:14:14.225Z,4.80
2022-11-28T01:16:42.859Z,4.33
2022-11-28T01:19:13.884Z,4.60
2022-11-28T01:21:42.083Z,4.03
2022-11-28T01:24:10.762Z,4.17
2022-11-28T01:26:40.557Z,4.83
2022-11-28T01:29:09.701Z,4.83
2022-11-28T01:31:38.336Z,4.70
2022-11-28T01:34:06.794Z,4.67
2022-11-28T01:36:36.332Z,4.27
2022-11-28T01:39:05.484Z,4.80
2022-11-28T01:41:33.744Z,4.90
2022-11-28T01:44:06.583Z,4.67
2022-11-28T01:46:36.173Z,4.40
2022-11-28T01:49:08.981Z,5.27
2022-11-28T01:51:40.388Z,4.70
2022-11-28T01:54:08.997Z,4.90
2022-11-28T01:56:44.294Z,999.90
2022-11-28T01:59:13.351Z,999.90
2022-11-28T02:01:42.012Z,999.90
2022-11-28T02:04:10.834Z,999.90
2022-11-28T02:06:44.208Z,999.90
2022-11-28T02:09:14.572Z,999.90
2022-11-28T02:12:11.038Z,999.90
2022-11-28T02:15:08.553Z,999.90
2022-11-28T02:17:52.911Z,999.90
2022-11-28T02:20:41.073Z,999.90
2022-11-28T02:23:19.345Z,999.90
2022-11-28T02:26:18.724Z,999.90
2022-11-28T02:29:15.506Z,999.90
2022-11-28T02:32:10.822Z,999.90
2022-11-28T02:34:47.343Z,999.90
2022-11-28T02:37:22.221Z,999.90
2022-11-28T02:40:00.695Z,999.90
2022-11-28T02:42:42.627Z,999.90
2022-11-28T02:45:14.026Z,999.90
2022-11-28T02:47:49.823Z,999.90
2022-11-28T02:50:23.267Z,999.90
2022-11-28T02:52:54.831Z,999.90
2022-11-28T02:55:24.469Z,999.90
2022-11-28T02:57:54.886Z,999.90
2022-11-28T03:00:32.048Z,999.90
2022-11-28T03:03:29.342Z,999.90
2022-11-28T03:06:01.539Z,999.90
2022-11-28T03:08:43.343Z,999.90
2022-11-28T03:11:22.652Z,999.90
2022-11-28T03:13:57.591Z,6.70
2022-11-28T03:16:30.175Z,7.07
2022-11-28T03:19:11.206Z,7.00
2022-11-28T03:21:44.437Z,6.60
2022-11-28T03:24:18.988Z,7.33
2022-11-28T03:26:56.417Z,6.97
2022-11-28T03:29:33.049Z,6.57
2022-11-28T03:32:08.022Z,6.67
2022-11-28T03:34:45.317Z,6.57
2022-11-28T03:37:16.685Z,7.53
2022-11-28T03:39:49.462Z,6.97
2022-11-28T03:42:22.338Z,6.47
2022-11-28T03:44:57.018Z,6.73
2022-11-28T03:47:30.591Z,6.57
2022-11-28T03:50:06.057Z,6.50
2022-11-28T03:52:38.040Z,7.07
2022-11-28T03:55:12.607Z,6.90
2022-11-28T03:57:46.363Z,7.40
2022-11-28T04:00:15.845Z,7.20
2022-11-28T04:02:55.484Z,7.17
2022-11-28T04:05:33.882Z,7.20
2022-11-28T04:08:09.002Z,7.60
2022-11-28T04:10:43.144Z,7.60
2022-11-28T04:13:19.421Z,8.10
2022-11-28T04:15:55.603Z,8.37
2022-11-28T04:18:28.796Z,8.47
2022-11-28T04:21:04.349Z,7.97
2022-11-28T04:23:35.373Z,8.97
2022-11-28T04:26:10.134Z,8.40
2022-11-28T04:28:42.407Z,7.97
2022-11-28T04:31:17.074Z,8.97
2022-11-28T04:34:01.622Z,9.67
2022-11-28T04:36:36.457Z,8.53
2022-11-28T04:39:09.724Z,9.50
2022-11-28T04:41:43.192Z,8.63
2022-11-28T04:44:16.997Z,9.00
2022-11-28T04:46:49.659Z,9.20
2022-11-28T04:49:17.932Z,9.60
2022-11-28T04:51:53.460Z,9.43
2022-11-28T04:54:25.932Z,9.93
2022-11-28T04:57:00.822Z,9.53
2022-11-28T04:59:32.067Z,9.80
2022-11-28T05:02:05.136Z,9.60
2022-11-28T05:04:36.680Z,9.87
2022-11-28T05:07:08.373Z,10.00
2022-11-28T05:09:37.050Z,9.40
2022-11-28T05:12:05.792Z,10.30
2022-11-28T05:14:34.008Z,8.63
2022-11-28T05:17:02.176Z,9.63
2022-11-28T05:19:30.355Z,9.57
2022-11-28T05:21:58.497Z,9.43
2022-11-28T05:24:32.092Z,10.13
2022-11-28T05:27:00.778Z,10.27
2022-11-28T05:29:29.109Z,10.37
2022-11-28T05:31:57.396Z,10.10
2022-11-28T05:34:25.601Z,12.13
2022-11-28T05:36:53.733Z,11.00
2022-11-28T05:39:26.695Z,11.87
2022-11-28T05:41:57.698Z,11.63
2022-11-28T05:44:27.187Z,12.27
2022-11-28T05:46:55.812Z,11.77
2022-11-28T05:49:25.524Z,13.40
2022-11-28T05:51:56.750Z,12.27
2022-11-28T05:54:33.130Z,12.63
2022-11-28T05:57:03.004Z,12.73
2022-11-28T05:59:31.179Z,13.30
2022-11-28T06:02:02.915Z,12.17
2022-11-28T06:04:34.119Z,12.43
2022-11-28T06:07:07.486Z,13.63
2022-11-28T06:09:35.965Z,13.00
2022-11-28T06:12:05.682Z,13.67
2022-11-28T06:14:36.216Z,13.90
2022-11-28T06:17:11.708Z,13.00
2022-11-28T06:19:41.761Z,13.30
2022-11-28T06:22:10.938Z,13.57
2022-11-28T06:24:39.065Z,14.93
2022-11-28T06:27:08.771Z,14.70
2022-11-28T06:29:36.981Z,13.27
2022-11-28T06:32:05.660Z,14.30
2022-11-28T06:34:37.404Z,13.70
2022-11-28T06:37:05.796Z,14.43
2022-11-28T06:39:33.956Z,13.47
2022-11-28T06:42:06.014Z,15.13
2022-11-28T06:44:35.578Z,15.20
2022-11-28T06:47:05.300Z,14.20
2022-11-28T06:49:35.754Z,14.43
2022-11-28T06:52:09.198Z,14.93
2022-11-28T06:54:37.370Z,14.60
2022-11-28T06:57:05.989Z,14.53
2022-11-28T06:59:35.509Z,14.27
2022-11-28T07:02:07.478Z,15.70
2022-11-28T07:04:36.391Z,14.83
2022-11-28T07:07:05.076Z,14.77
2022-11-28T07:09:33.725Z,14.67
2022-11-28T07:12:01.852Z,14.47
2022-11-28T07:14:30.043Z,14.10
2022-11-28T07:16:59.624Z,15.37
2022-11-28T07:19:28.350Z,14.67
2022-11-28T07:21:56.496Z,14.47
2022-11-28T07:24:24.678Z,14.23
2022-11-28T07:26:54.514Z,14.57
2022-11-28T07:29:27.477Z,13.20
2022-11-28T07:31:55.791Z,14.17
2022-11-28T07:34:25.774Z,13.80
2022-11-28T07:36:55.578Z,15.03
2022-11-28T07:39:30.001Z,15.00
2022-11-28T07:42:06.850Z,14.50
2022-11-28T07:44:37.412Z,14.03
2022-11-28T07:47:06.401Z,13.93
2022-11-28T07:49:36.140Z,12.87
2022-11-28T07:52:04.861Z,12.60
2022-11-28T07:54:33.036Z,13.23
2022-11-28T07:57:16.425Z,12.50
2022-11-28T07:59:44.888Z,13.70
2022-11-28T08:02:13.415Z,13.03
2022-11-28T08:04:49.366Z,14.57
2022-11-28T08:07:20.231Z,14.07
2022-11-28T08:09:48.756Z,12.40
2022-11-28T08:12:17.059Z,12.93
2022-11-28T08:14:45.347Z,13.37
2022-11-28T08:17:13.748Z,12.67
2022-11-28T08:19:43.324Z,13.00
2022-11-28T08:22:11.510Z,13.50
2022-11-28T08:24:40.064Z,14.00
2022-11-28T08:27:08.768Z,12.47
2022-11-28T08:29:37.742Z,12.43
2022-11-28T08:32:06.319Z,12.60
2022-11-28T08:34:34.479Z,13.80
2022-11-28T08:37:04.059Z,13.30
2022-11-28T08:39:32.672Z,12.50
2022-11-28T08:42:01.010Z,14.90
2022-11-28T08:44:30.750Z,13.83
2022-11-28T08:47:00.479Z,14.40
2022-11-28T08:49:28.829Z,13.60
2022-11-28T08:51:57.042Z,13.00
2022-11-28T08:54:26.881Z,13.10
2022-11-28T08:56:55.069Z,13.93
2022-11-28T08:59:23.379Z,12.80
2022-11-28T09:01:53.578Z,12.67
2022-11-28T09:04:21.882Z,13.00
2022-11-28T09:06:52.569Z,13.53
2022-11-28T09:09:20.938Z,12.00
2022-11-28T09:11:50.592Z,12.53
2022-11-28T09:14:18.769Z,13.17
2022-11-28T09:16:47.058Z,12.70
2022-11-28T09:19:15.322Z,11.37
2022-11-28T09:21:43.737Z,12.67
2022-11-28T09:24:14.016Z,12.47
2022-11-28T09:26:43.094Z,12.50
2022-11-28T09:29:12.692Z,13.63
2022-11-28T09:31:45.788Z,13.37
2022-11-28T09:34:15.477Z,13.50
2022-11-28T09:36:43.663Z,12.47
2022-11-28T09:39:11.807Z,12.90
2022-11-28T09:41:52.004Z,12.70
2022-11-28T09:44:27.524Z,13.00
2022-11-28T09:47:01.397Z,13.10
2022-11-28T09:49:40.796Z,11.47
2022-11-28T09:52:18.589Z,13.67
2022-11-28T09:54:52.821Z,12.83
2022-11-28T09:57:36.225Z,12.67
2022-11-28T10:00:08.518Z,12.87
2022-11-28T10:02:49.648Z,13.23
2022-11-28T10:05:25.830Z,12.07
2022-11-28T10:08:11.788Z,12.03
2022-11-28T10:10:48.890Z,12.93
2022-11-28T10:13:21.668Z,13.40
2022-11-28T10:15:58.859Z,13.53
2022-11-28T10:18:36.158Z,12.70
2022-11-28T10:21:22.204Z,12.67
2022-11-28T10:23:53.135Z,12.10
2022-11-28T10:26:28.307Z,11.00
2022-11-28T10:28:59.308Z,11.13
2022-11-28T10:31:36.031Z,11.13
2022-11-28T10:34:11.058Z,10.40
2022-11-28T10:36:50.775Z,11.13
2022-11-28T10:39:19.323Z,10.90
2022-11-28T10:42:11.655Z,11.07
2022-11-28T10:44:51.745Z,11.60
2022-11-28T10:47:39.306Z,10.90
2022-11-28T10:50:16.163Z,10.87
2022-11-28T10:52:51.624Z,12.50
2022-11-28T10:55:29.293Z,11.30
2022-11-28T10:58:12.082Z,10.23
2022-11-28T11:00:43.470Z,11.27
2022-11-28T11:03:16.861Z,10.77
2022-11-28T11:05:45.417Z,10.70
2022-11-28T11:08:20.511Z,10.47
2022-11-28T11:10:50.993Z,999.90
2022-11-28T11:13:22.236Z,11.07
2022-11-28T11:15:58.640Z,10.67
2022-11-28T11:18:31.048Z,11.07
2022-11-28T11:21:16.133Z,10.30
2022-11-28T11:23:47.543Z,10.17
2022-11-28T11:26:23.875Z,11.03
2022-11-28T11:28:56.095Z,9.93
2022-11-28T11:31:28.260Z,10.27
2022-11-28T11:34:10.412Z,10.43
2022-11-28T11:36:39.204Z,9.67
2022-11-28T11:39:22.978Z,10.17
2022-11-28T11:41:53.709Z,11.40
2022-11-28T11:44:29.291Z,10.27
2022-11-28T11:47:00.647Z,22.17
2022-11-28T11:49:32.796Z,10.60
2022-11-28T11:52:03.892Z,10.73
2022-11-28T11:54:32.224Z,9.30
2022-11-28T11:57:30.670Z,12.10
2022-11-28T11:59:53.205Z,9.40
2022-11-28T12:02:28.731Z,9.07
2022-11-28T12:05:04.048Z,10.80
2022-11-28T12:07:41.860Z,11.80
2022-11-28T12:10:13.940Z,11.37
2022-11-28T12:12:42.427Z,11.37
2022-11-28T12:15:19.209Z,10.63
2022-11-28T12:17:59.990Z,10.10
2022-11-28T12:20:55.652Z,10.97
2022-11-28T12:23:41.284Z,11.47
2022-11-28T12:26:15.693Z,10.87
2022-11-28T12:28:55.010Z,9.80
2022-11-28T12:31:29.532Z,9.83
2022-11-28T12:34:06.858Z,10.63
2022-11-28T12:36:44.658Z,10.37
2022-11-28T12:39:21.061Z,10.43
2022-11-28T12:42:20.693Z,9.93
2022-11-28T12:45:13.273Z,9.10
2022-11-28T12:47:48.526Z,10.17
2022-11-28T12:50:27.287Z,13.17
2022-11-28T12:53:10.963Z,9.03
2022-11-28T12:55:49.911Z,7.87
2022-11-28T12:58:23.507Z,8.60
2022-11-28T13:00:59.558Z,9.60
2022-11-28T13:03:41.581Z,8.90
2022-11-28T13:06:24.769Z,8.87
2022-11-28T13:09:15.179Z,16.03
2022-11-28T13:11:57.083Z,10.43
2022-11-28T13:14:33.540Z,10.13
2022-11-28T13:17:12.364Z,10.70
2022-11-28T13:19:47.477Z,9.30
2022-11-28T13:22:23.454Z,14.07
2022-11-28T13:25:00.823Z,115.00
2022-11-28T13:27:37.462Z,253.60
2022-11-28T13:30:18.230Z,12.50
2022-11-28T13:32:52.964Z,177.93
2022-11-28T13:35:21.693Z,999.90
2022-11-28T13:40:52.061Z,11.00
2022-11-28T13:43:27.187Z,9.90
2022-11-28T13:45:56.449Z,270.13
2022-11-28T13:51:42.012Z,13.40
2022-11-28T13:54:48.673Z,11.57
2022-11-28T13:57:30.795Z,12.10
2022-11-28T14:00:04.706Z,12.13
2022-11-28T14:02:45.710Z,11.90
2022-11-28T14:05:27.108Z,15.13
2022-11-28T14:07:56.778Z,13.23
2022-11-28T14:10:52.207Z,22.60
2022-11-28T14:13:45.238Z,11.83
2022-11-28T14:16:23.807Z,12.70
2022-11-28T14:19:11.004Z,35.57
2022-11-28T14:21:54.020Z,12.70
2022-11-28T14:24:33.800Z,999.90
2022-11-28T14:27:05.698Z,223.10
2022-11-28T14:29:40.063Z,258.87
2022-11-28T14:32:31.963Z,807.83
2022-11-28T14:35:01.885Z,29.90
2022-11-28T14:37:56.148Z,270.53
2022-11-28T14:41:09.104Z,29.90
2022-11-28T14:43:42.662Z,204.70
2022-11-28T14:46:30.773Z,48.60
2022-11-28T14:49:18.968Z,717.00
2022-11-28T14:52:38.417Z,246.43
2022-11-28T14:55:19.537Z,929.77
2022-11-28T14:57:59.752Z,86.07
2022-11-28T15:00:31.505Z,999.90
2022-11-28T15:03:26.340Z,999.90
2022-11-28T15:05:57.150Z,999.90
2022-11-28T15:08:38.011Z,93.73
2022-11-28T15:11:20.913Z,13.10
2022-11-28T15:14:03.102Z,12.53
2022-11-28T15:16:33.554Z,172.80
2022-11-28T15:19:08.562Z,11.90
2022-11-28T15:21:46.759Z,13.90
2022-11-28T15:24:25.322Z,12.17
2022-11-28T15:26:57.770Z,28.20
2022-11-28T15:29:28.020Z,11.23
2022-11-28T15:32:03.132Z,16.50
2022-11-28T15:34:41.338Z,13.40
2022-11-28T15:37:18.436Z,12.57
2022-11-28T15:39:49.227Z,12.77
2022-11-28T15:42:23.942Z,29.80
2022-11-28T15:44:57.952Z,16.07
2022-11-28T15:47:28.456Z,28.57
2022-11-28T15:50:03.903Z,268.53
2022-11-28T15:52:33.207Z,11.57
2022-11-28T15:55:01.597Z,51.27
2022-11-28T15:57:32.575Z,94.27
2022-11-28T16:00:03.035Z,17.30
2022-11-28T16:02:43.482Z,774.53
2022-11-28T16:05:20.834Z,23.97
2022-11-28T16:07:51.866Z,16.43
2022-11-28T16:10:24.796Z,15.67
2022-11-28T16:12:58.030Z,33.77
2022-11-28T16:15:27.759Z,14.00
2022-11-28T16:17:56.849Z,16.20
2022-11-28T16:20:29.113Z,180.30
2022-11-28T16:23:02.640Z,74.20
2022-11-28T16:25:32.583Z,15.33
2022-11-28T16:28:01.303Z,13.47
2022-11-28T16:30:34.842Z,15.37
2022-11-28T16:33:03.837Z,16.00
2022-11-28T16:35:38.811Z,20.27
2022-11-28T16:38:16.061Z,14.60
2022-11-28T16:40:44.883Z,14.07
2022-11-28T16:43:25.660Z,15.60
2022-11-28T16:46:01.088Z,21.13
2022-11-28T16:48:31.649Z,16.80
2022-11-28T16:54:30.562Z,78.43
2022-11-28T16:57:10.335Z,17.67
2022-11-28T16:59:38.649Z,18.73
2022-11-28T17:02:15.855Z,192.10
2022-11-28T17:04:44.589Z,16.83
2022-11-28T17:07:14.621Z,19.20
2022-11-28T17:09:45.691Z,206.10
2022-11-28T17:12:19.755Z,15.60
2022-11-28T17:14:47.906Z,19.57
2022-11-28T17:17:19.231Z,15.73
2022-11-28T17:19:50.391Z,15.30
2022-11-28T17:22:24.161Z,20.30
2022-11-28T17:24:58.766Z,13.40
2022-11-28T17:27:26.987Z,608.77
2022-11-28T17:29:55.223Z,999.90
2022-11-28T17:32:23.574Z,106.90
2022-11-28T17:34:51.828Z,88.00
2022-11-28T17:37:20.016Z,67.10
2022-11-28T17:40:02.052Z,14.57
2022-11-28T17:42:31.856Z,14.20
2022-11-28T17:45:00.825Z,14.07
2022-11-28T17:47:29.127Z,14.80
2022-11-28T17:50:00.160Z,29.50
2022-11-28T17:52:30.494Z,14.73
2022-11-28T17:55:07.074Z,16.17
2022-11-28T17:57:38.133Z,25.60
2022-11-28T18:00:09.646Z,31.87
2022-11-28T18:02:45.452Z,13.83
2022-11-28T18:05:13.738Z,16.67
2022-11-28T18:07:42.222Z,14.07
2022-11-28T18:10:13.069Z,17.40
2022-11-28T18:12:42.714Z,17.23
2022-11-28T18:15:11.480Z,15.57
2022-11-28T18:17:39.825Z,19.00
2022-11-28T18:20:09.786Z,17.00
2022-11-28T18:22:38.440Z,14.43
2022-11-28T18:25:08.727Z,13.87
2022-11-28T18:27:37.012Z,16.57
2022-11-28T18:30:08.685Z,18.07
2022-11-28T18:32:36.981Z,13.33
2022-11-28T18:35:06.861Z,200.90
2022-11-28T18:37:35.064Z,14.40
2022-11-28T18:40:09.144Z,13.23
2022-11-28T18:42:38.968Z,15.57
2022-11-28T18:45:11.909Z,18.33
2022-11-28T18:47:40.531Z,14.00
2022-11-28T18:50:09.947Z,13.37
2022-11-28T18:52:38.413Z,13.10
2022-11-28T18:55:08.026Z,13.60
2022-11-28T18:57:37.409Z,12.97
2022-11-28T19:00:09.683Z,22.57
2022-11-28T19:02:37.885Z,13.47
2022-11-28T19:05:08.174Z,13.57
2022-11-28T19:07:36.437Z,13.97
2022-11-28T19:10:07.941Z,444.00
2022-11-28T19:12:37.847Z,94.13
2022-11-28T19:15:07.527Z,999.90
2022-11-28T19:17:37.149Z,19.07
2022-11-28T19:20:07.361Z,999.90
2022-11-28T19:22:36.546Z,17.70
2022-11-28T19:25:06.354Z,16.00
2022-11-28T19:27:34.900Z,16.30
2022-11-28T19:30:03.568Z,44.43
2022-11-28T19:32:33.464Z,15.50
2022-11-28T19:35:03.052Z,443.13
2022-11-28T19:37:32.604Z,157.03
2022-11-28T19:40:02.829Z,19.13
2022-11-28T19:42:32.870Z,23.20
2022-11-28T19:45:01.266Z,20.40
2022-11-28T19:47:29.430Z,17.60
2022-11-28T19:49:57.599Z,73.73
2022-11-28T19:52:27.318Z,78.77
2022-11-28T19:54:55.539Z,28.03
2022-11-28T19:57:24.140Z,17.30
2022-11-28T19:59:53.808Z,64.00
2022-11-28T20:02:23.582Z,42.30
2022-11-28T20:04:51.875Z,85.77
2022-11-28T20:07:20.173Z,71.20
2022-11-28T20:09:50.713Z,234.63
2022-11-28T20:12:19.378Z,27.97
2022-11-28T20:14:47.577Z,14.37
2022-11-28T20:17:15.859Z,70.27
2022-11-28T20:19:45.986Z,367.03
2022-11-28T20:22:14.375Z,26.17
2022-11-28T20:24:42.566Z,17.00
2022-11-28T20:27:12.219Z,64.27
2022-11-28T20:29:40.602Z,16.77
2022-11-28T20:32:11.067Z,17.80
2022-11-28T20:34:39.347Z,15.73
2022-11-28T20:37:08.383Z,17.43
2022-11-28T20:39:36.614Z,17.20
2022-11-28T20:42:05.417Z,17.43
2022-11-28T20:44:35.572Z,22.23
2022-11-28T20:47:03.820Z,16.93
2022-11-28T20:49:33.586Z,16.30
2022-11-28T20:52:01.777Z,17.07
2022-11-28T20:54:30.059Z,17.30
2022-11-28T20:57:20.350Z,16.53
2022-11-28T20:59:47.841Z,17.17
2022-11-28T21:02:16.161Z,17.60
2022-11-28T21:04:44.532Z,17.07
2022-11-28T21:07:12.738Z,16.00
2022-11-28T21:09:40.992Z,88.83
2022-11-28T21:12:09.444Z,160.67
2022-11-28T21:14:37.686Z,452.60
2022-11-28T21:17:08.604Z,21.97
2022-11-28T21:19:36.905Z,18.70
2022-11-28T21:22:06.720Z,15.37
2022-11-28T21:24:34.925Z,14.67
2022-11-28T21:27:03.107Z,15.67
2022-11-28T21:29:32.256Z,16.63
2022-11-28T21:32:00.513Z,14.47
2022-11-28T21:34:30.120Z,16.27
2022-11-28T21:36:58.368Z,14.33
2022-11-28T21:39:26.653Z,14.53
2022-11-28T21:41:54.889Z,14.30
2022-11-28T21:44:23.129Z,15.07
2022-11-28T21:46:51.508Z,15.40
2022-11-28T21:49:22.543Z,15.07
2022-11-28T21:51:54.313Z,14.07
2022-11-28T21:54:24.696Z,12.97
2022-11-28T21:56:53.766Z,14.10
2022-11-28T21:59:22.879Z,14.03
2022-11-28T22:01:51.407Z,15.13
2022-11-28T22:04:21.935Z,14.73
2022-11-28T22:06:51.380Z,15.43
2022-11-28T22:09:21.096Z,15.93
2022-11-28T22:11:49.313Z,13.87
2022-11-28T22:14:17.929Z,14.43
2022-11-28T22:16:46.118Z,13.23
2022-11-28T22:19:15.755Z,14.23
2022-11-28T22:21:52.027Z,13.10
2022-11-28T22:24:23.292Z,13.77
2022-11-28T22:26:51.792Z,13.83
2022-11-28T22:29:20.200Z,16.27
2022-11-28T22:31:50.029Z,14.03
2022-11-28T22:34:19.660Z,13.67
2022-11-28T22:36:47.894Z,14.10
2022-11-28T22:39:16.101Z,16.40
2022-11-28T22:41:45.696Z,14.10
2022-11-28T22:44:14.263Z,14.37
2022-11-28T22:46:42.550Z,13.17
2022-11-28T22:49:11.902Z,14.20
2022-11-28T22:51:40.873Z,14.80
2022-11-28T22:54:12.895Z,13.63
2022-11-28T22:56:41.450Z,13.50
2022-11-28T22:59:14.502Z,12.87
2022-11-28T23:01:43.598Z,13.77
2022-11-28T23:04:12.692Z,14.07
2022-11-28T23:06:40.972Z,14.07
2022-11-28T23:09:11.375Z,14.47
2022-11-28T23:11:41.091Z,12.87
2022-11-28T23:14:12.934Z,13.87
2022-11-28T23:16:43.940Z,13.50
2022-11-28T23:19:14.514Z,14.63
2022-11-28T23:21:44.704Z,15.97
2022-11-28T23:24:15.441Z,14.03
2022-11-28T23:26:45.541Z,12.87
2022-11-28T23:29:15.711Z,14.63
2022-11-28T23:31:47.045Z,13.53
2022-11-28T23:34:15.670Z,13.80
2022-11-28T23:36:46.256Z,14.83
2022-11-28T23:39:19.178Z,13.00
2022-11-28T23:41:49.487Z,17.33
2022-11-28T23:44:19.361Z,12.63
2022-11-28T23:46:49.489Z,12.77
2022-11-28T23:49:18.253Z,13.03
2022-11-28T23:51:46.431Z,12.83
2022-11-28T23:54:14.781Z,12.97
2022-11-28T23:56:44.684Z,12.53
2022-11-28T23:59:15.673Z,12.63
